sensor_id;sensor_type;location;lat;lon;timestamp;P1;durP1;ratioP1;P2;durP2;ratioP2
4676;SDS011;2352;48.180;11.478;2024-03-08T00:00:32;15.83;;;14.47;;
4676;SDS011;2352;48.180;11.478;2024-03-08T00:05:35;15.13;;;13.83;;
4676;SDS011;2352;48.180;11.478;2024-03-08T00:10:40;15.73;;;14.43;;
4676;SDS011;2352;48.180;11.478;2024-03-08T00:15:44;15.03;;;13.93;;
4676;SDS011;2352;48.180;11.478;2024-03-08T00:20:47;15.70;;;14.17;;
4676;SDS011;2352;48.180;11.478;2024-03-08T00:25:51;16.27;;;14.97;;
4676;SDS011;2352;48.180;11.478;2024-03-08T00:30:56;15.93;;;14.67;;
4676;SDS011;2352;48.180;11.478;2024-03-08T00:35:59;16.10;;;14.80;;
4676;SDS011;2352;48.180;11.478;2024-03-08T00:41:02;16.07;;;14.97;;
4676;SDS011;2352;48.180;11.478;2024-03-08T00:46:07;15.47;;;14.30;;
4676;SDS011;2352;48.180;11.478;2024-03-08T00:51:10;16.10;;;14.63;;
4676;SDS011;2352;48.180;11.478;2024-03-08T00:56:13;15.20;;;14.20;;
4676;SDS011;2352;48.180;11.478;2024-03-08T01:01:17;17.33;;;15.80;;
4676;SDS011;2352;48.180;11.478;2024-03-08T01:06:20;16.93;;;15.53;;
4676;SDS011;2352;48.180;11.478;2024-03-08T01:11:23;16.77;;;15.27;;
4676;SDS011;2352;48.180;11.478;2024-03-08T01:16:28;16.40;;;15.00;;
4676;SDS011;2352;48.180;11.478;2024-03-08T01:21:31;15.70;;;14.30;;
4676;SDS011;2352;48.180;11.478;2024-03-08T01:26:34;16.43;;;15.03;;
4676;SDS011;2352;48.180;11.478;2024-03-08T01:31:38;15.67;;;14.40;;
4676;SDS011;2352;48.180;11.478;2024-03-08T01:36:41;16.87;;;15.33;;
4676;SDS011;2352;48.180;11.478;2024-03-08T01:41:44;18.53;;;16.63;;
4676;SDS011;2352;48.180;11.478;2024-03-08T01:46:48;18.43;;;16.77;;
4676;SDS011;2352;48.180;11.478;2024-03-08T01:51:53;16.43;;;14.97;;
4676;SDS011;2352;48.180;11.478;2024-03-08T01:56:57;17.03;;;15.77;;
4676;SDS011;2352;48.180;11.478;2024-03-08T02:02:02;18.40;;;16.50;;
4676;SDS011;2352;48.180;11.478;2024-03-08T02:07:07;17.07;;;15.57;;
4676;SDS011;2352;48.180;11.478;2024-03-08T02:12:11;17.03;;;15.63;;
4676;SDS011;2352;48.180;11.478;2024-03-08T02:17:16;18.47;;;16.87;;
4676;SDS011;2352;48.180;11.478;2024-03-08T02:22:20;19.90;;;18.17;;
4676;SDS011;2352;48.180;11.478;2024-03-08T02:27:23;17.73;;;16.20;;
4676;SDS011;2352;48.180;11.478;2024-03-08T02:32:26;18.47;;;16.80;;
4676;SDS011;2352;48.180;11.478;2024-03-08T02:37:31;18.33;;;16.63;;
4676;SDS011;2352;48.180;11.478;2024-03-08T02:42:34;19.13;;;17.13;;
4676;SDS011;2352;48.180;11.478;2024-03-08T02:47:36;19.07;;;17.43;;
4676;SDS011;2352;48.180;11.478;2024-03-08T02:52:41;20.00;;;18.20;;
4676;SDS011;2352;48.180;11.478;2024-03-08T02:57:44;18.17;;;16.60;;
4676;SDS011;2352;48.180;11.478;2024-03-08T03:02:48;19.83;;;17.90;;
4676;SDS011;2352;48.180;11.478;2024-03-08T03:07:54;19.67;;;17.97;;
4676;SDS011;2352;48.180;11.478;2024-03-08T03:12:58;18.13;;;16.53;;
4676;SDS011;2352;48.180;11.478;2024-03-08T03:18:01;18.10;;;16.57;;
4676;SDS011;2352;48.180;11.478;2024-03-08T03:23:06;18.77;;;16.97;;
4676;SDS011;2352;48.180;11.478;2024-03-08T03:28:10;20.07;;;18.23;;
4676;SDS011;2352;48.180;11.478;2024-03-08T03:33:16;19.40;;;17.63;;
4676;SDS011;2352;48.180;11.478;2024-03-08T03:38:20;20.47;;;18.47;;
4676;SDS011;2352;48.180;11.478;2024-03-08T03:43:25;19.30;;;17.20;;
4676;SDS011;2352;48.180;11.478;2024-03-08T03:48:28;19.63;;;17.97;;
4676;SDS011;2352;48.180;11.478;2024-03-08T03:53:32;20.00;;;18.10;;
4676;SDS011;2352;48.180;11.478;2024-03-08T03:58:35;19.73;;;18.00;;
4676;SDS011;2352;48.180;11.478;2024-03-08T04:03:40;19.73;;;18.10;;
4676;SDS011;2352;48.180;11.478;2024-03-08T04:08:45;19.97;;;18.17;;
4676;SDS011;2352;48.180;11.478;2024-03-08T04:13:48;21.13;;;19.23;;
4676;SDS011;2352;48.180;11.478;2024-03-08T04:18:51;19.47;;;17.73;;
4676;SDS011;2352;48.180;11.478;2024-03-08T04:23:56;21.67;;;19.50;;
4676;SDS011;2352;48.180;11.478;2024-03-08T04:28:59;19.80;;;17.77;;
4676;SDS011;2352;48.180;11.478;2024-03-08T04:34:02;20.43;;;18.60;;
4676;SDS011;2352;48.180;11.478;2024-03-08T04:39:07;21.77;;;19.70;;
4676;SDS011;2352;48.180;11.478;2024-03-08T04:44:14;24.93;;;22.37;;
4676;SDS011;2352;48.180;11.478;2024-03-08T04:49:16;25.10;;;22.63;;
4676;SDS011;2352;48.180;11.478;2024-03-08T04:54:21;22.00;;;19.80;;
4676;SDS011;2352;48.180;11.478;2024-03-08T04:59:25;24.30;;;21.93;;
4676;SDS011;2352;48.180;11.478;2024-03-08T05:04:28;24.70;;;22.47;;
4676;SDS011;2352;48.180;11.478;2024-03-08T05:09:32;25.57;;;22.77;;
4676;SDS011;2352;48.180;11.478;2024-03-08T05:14:37;25.83;;;23.23;;
4676;SDS011;2352;48.180;11.478;2024-03-08T05:19:40;26.30;;;23.70;;
4676;SDS011;2352;48.180;11.478;2024-03-08T05:24:45;26.07;;;23.47;;
4676;SDS011;2352;48.180;11.478;2024-03-08T05:29:48;24.83;;;22.30;;
4676;SDS011;2352;48.180;11.478;2024-03-08T05:34:51;26.47;;;24.20;;
4676;SDS011;2352;48.180;11.478;2024-03-08T05:39:55;26.73;;;24.03;;
4676;SDS011;2352;48.180;11.478;2024-03-08T05:44:58;28.50;;;25.63;;
4676;SDS011;2352;48.180;11.478;2024-03-08T05:50:01;29.23;;;26.30;;
4676;SDS011;2352;48.180;11.478;2024-03-08T05:55:07;29.10;;;26.30;;
4676;SDS011;2352;48.180;11.478;2024-03-08T06:00:11;28.03;;;25.23;;
4676;SDS011;2352;48.180;11.478;2024-03-08T06:05:17;28.17;;;25.27;;
4676;SDS011;2352;48.180;11.478;2024-03-08T06:10:21;29.17;;;26.57;;
4676;SDS011;2352;48.180;11.478;2024-03-08T06:15:24;28.17;;;25.53;;
4676;SDS011;2352;48.180;11.478;2024-03-08T06:20:27;26.77;;;24.13;;
4676;SDS011;2352;48.180;11.478;2024-03-08T06:25:32;28.67;;;25.77;;
4676;SDS011;2352;48.180;11.478;2024-03-08T06:30:36;27.77;;;24.90;;
4676;SDS011;2352;48.180;11.478;2024-03-08T06:35:39;26.17;;;23.47;;
4676;SDS011;2352;48.180;11.478;2024-03-08T06:40:44;27.67;;;24.83;;
4676;SDS011;2352;48.180;11.478;2024-03-08T06:45:49;26.20;;;23.67;;
4676;SDS011;2352;48.180;11.478;2024-03-08T06:50:52;27.53;;;24.67;;
4676;SDS011;2352;48.180;11.478;2024-03-08T06:55:56;25.10;;;22.50;;
4676;SDS011;2352;48.180;11.478;2024-03-08T07:00:59;28.60;;;24.30;;
4676;SDS011;2352;48.180;11.478;2024-03-08T07:06:06;25.23;;;22.50;;
4676;SDS011;2352;48.180;11.478;2024-03-08T07:11:10;24.20;;;21.77;;
4676;SDS011;2352;48.180;11.478;2024-03-08T07:16:13;28.23;;;23.90;;
4676;SDS011;2352;48.180;11.478;2024-03-08T07:21:17;24.67;;;22.10;;
4676;SDS011;2352;48.180;11.478;2024-03-08T07:26:22;24.53;;;22.23;;
4676;SDS011;2352;48.180;11.478;2024-03-08T07:31:25;25.60;;;22.93;;
4676;SDS011;2352;48.180;11.478;2024-03-08T07:36:39;29.10;;;22.40;;
4676;SDS011;2352;48.180;11.478;2024-03-08T07:41:43;28.40;;;23.50;;
4676;SDS011;2352;48.180;11.478;2024-03-08T07:46:46;24.37;;;21.77;;
4676;SDS011;2352;48.180;11.478;2024-03-08T07:51:49;25.27;;;22.70;;
4676;SDS011;2352;48.180;11.478;2024-03-08T07:56:54;25.87;;;21.57;;
4676;SDS011;2352;48.180;11.478;2024-03-08T08:01:57;24.93;;;22.53;;
4676;SDS011;2352;48.180;11.478;2024-03-08T08:07:01;24.90;;;22.53;;
4676;SDS011;2352;48.180;11.478;2024-03-08T08:12:05;23.37;;;20.87;;
4676;SDS011;2352;48.180;11.478;2024-03-08T08:17:11;23.20;;;20.83;;
4676;SDS011;2352;48.180;11.478;2024-03-08T08:22:14;26.77;;;24.03;;
4676;SDS011;2352;48.180;11.478;2024-03-08T08:27:18;27.23;;;24.33;;
4676;SDS011;2352;48.180;11.478;2024-03-08T08:32:21;25.43;;;23.03;;
4676;SDS011;2352;48.180;11.478;2024-03-08T08:37:24;27.13;;;24.23;;
4676;SDS011;2352;48.180;11.478;2024-03-08T08:42:29;24.70;;;22.27;;
4676;SDS011;2352;48.180;11.478;2024-03-08T08:47:32;25.93;;;23.50;;
4676;SDS011;2352;48.180;11.478;2024-03-08T08:52:35;26.00;;;23.30;;
4676;SDS011;2352;48.180;11.478;2024-03-08T08:57:42;26.20;;;23.60;;
4676;SDS011;2352;48.180;11.478;2024-03-08T09:02:45;25.27;;;22.80;;
4676;SDS011;2352;48.180;11.478;2024-03-08T09:07:49;23.17;;;21.03;;
4676;SDS011;2352;48.180;11.478;2024-03-08T09:12:54;26.53;;;23.63;;
4676;SDS011;2352;48.180;11.478;2024-03-08T09:17:57;23.50;;;21.17;;
4676;SDS011;2352;48.180;11.478;2024-03-08T09:23:00;24.17;;;21.87;;
4676;SDS011;2352;48.180;11.478;2024-03-08T09:28:05;23.23;;;21.07;;
4676;SDS011;2352;48.180;11.478;2024-03-08T09:33:08;23.37;;;21.27;;
4676;SDS011;2352;48.180;11.478;2024-03-08T09:38:11;21.60;;;19.60;;
4676;SDS011;2352;48.180;11.478;2024-03-08T09:43:16;27.03;;;24.20;;
4676;SDS011;2352;48.180;11.478;2024-03-08T09:48:23;27.10;;;24.20;;
4676;SDS011;2352;48.180;11.478;2024-03-08T09:53:28;24.53;;;22.03;;
4676;SDS011;2352;48.180;11.478;2024-03-08T09:58:33;26.17;;;23.47;;
4676;SDS011;2352;48.180;11.478;2024-03-08T10:03:53;24.77;;;22.27;;
4676;SDS011;2352;48.180;11.478;2024-03-08T10:08:57;25.93;;;23.43;;
4676;SDS011;2352;48.180;11.478;2024-03-08T10:14:01;24.57;;;22.17;;
4676;SDS011;2352;48.180;11.478;2024-03-08T10:19:04;24.27;;;21.93;;
4676;SDS011;2352;48.180;11.478;2024-03-08T10:24:08;23.00;;;20.97;;
4676;SDS011;2352;48.180;11.478;2024-03-08T10:29:16;22.67;;;20.73;;
4676;SDS011;2352;48.180;11.478;2024-03-08T10:34:20;19.20;;;17.53;;
4676;SDS011;2352;48.180;11.478;2024-03-08T10:39:25;18.80;;;17.07;;
4676;SDS011;2352;48.180;11.478;2024-03-08T10:44:39;18.53;;;16.83;;
4676;SDS011;2352;48.180;11.478;2024-03-08T10:49:50;20.67;;;18.90;;
4676;SDS011;2352;48.180;11.478;2024-03-08T10:54:56;20.97;;;18.77;;
4676;SDS011;2352;48.180;11.478;2024-03-08T11:00:02;19.93;;;18.20;;
4676;SDS011;2352;48.180;11.478;2024-03-08T11:05:09;20.27;;;18.57;;
4676;SDS011;2352;48.180;11.478;2024-03-08T11:10:20;19.83;;;18.13;;
4676;SDS011;2352;48.180;11.478;2024-03-08T11:15:25;21.80;;;19.80;;
4676;SDS011;2352;48.180;11.478;2024-03-08T11:20:30;17.73;;;16.10;;
4676;SDS011;2352;48.180;11.478;2024-03-08T11:25:37;14.60;;;13.63;;
4676;SDS011;2352;48.180;11.478;2024-03-08T11:30:45;20.60;;;18.13;;
4676;SDS011;2352;48.180;11.478;2024-03-08T11:35:50;17.83;;;16.40;;
4676;SDS011;2352;48.180;11.478;2024-03-08T11:40:53;18.87;;;17.20;;
4676;SDS011;2352;48.180;11.478;2024-03-08T11:46:08;17.00;;;15.63;;
4676;SDS011;2352;48.180;11.478;2024-03-08T11:51:12;17.87;;;16.23;;
4676;SDS011;2352;48.180;11.478;2024-03-08T11:56:16;17.17;;;15.57;;
4676;SDS011;2352;48.180;11.478;2024-03-08T12:01:22;17.43;;;16.13;;
4676;SDS011;2352;48.180;11.478;2024-03-08T12:06:26;16.47;;;15.07;;
4676;SDS011;2352;48.180;11.478;2024-03-08T12:11:38;16.37;;;14.90;;
4676;SDS011;2352;48.180;11.478;2024-03-08T12:16:43;16.53;;;14.67;;
4676;SDS011;2352;48.180;11.478;2024-03-08T12:21:46;17.93;;;16.23;;
4676;SDS011;2352;48.180;11.478;2024-03-08T12:26:50;17.10;;;15.70;;
4676;SDS011;2352;48.180;11.478;2024-03-08T12:31:59;15.80;;;14.50;;
4676;SDS011;2352;48.180;11.478;2024-03-08T12:37:03;16.00;;;14.67;;
4676;SDS011;2352;48.180;11.478;2024-03-08T12:42:08;15.20;;;14.10;;
4676;SDS011;2352;48.180;11.478;2024-03-08T12:47:12;16.13;;;14.73;;
4676;SDS011;2352;48.180;11.478;2024-03-08T12:52:15;15.60;;;14.27;;
4676;SDS011;2352;48.180;11.478;2024-03-08T12:57:19;16.10;;;14.63;;
4676;SDS011;2352;48.180;11.478;2024-03-08T13:02:24;16.27;;;14.97;;
4676;SDS011;2352;48.180;11.478;2024-03-08T13:07:27;15.77;;;14.37;;
4676;SDS011;2352;48.180;11.478;2024-03-08T13:12:33;15.40;;;14.23;;
4676;SDS011;2352;48.180;11.478;2024-03-08T13:17:40;15.13;;;13.87;;
4676;SDS011;2352;48.180;11.478;2024-03-08T13:22:44;13.97;;;12.83;;
4676;SDS011;2352;48.180;11.478;2024-03-08T13:27:48;15.90;;;14.60;;
4676;SDS011;2352;48.180;11.478;2024-03-08T13:32:52;14.07;;;12.77;;
4676;SDS011;2352;48.180;11.478;2024-03-08T13:37:56;14.60;;;13.50;;
4676;SDS011;2352;48.180;11.478;2024-03-08T13:42:59;15.77;;;14.03;;
4676;SDS011;2352;48.180;11.478;2024-03-08T13:48:04;16.43;;;14.83;;
4676;SDS011;2352;48.180;11.478;2024-03-08T13:53:08;13.77;;;12.80;;
4676;SDS011;2352;48.180;11.478;2024-03-08T13:58:11;14.37;;;13.27;;
4676;SDS011;2352;48.180;11.478;2024-03-08T14:03:16;13.90;;;12.90;;
4676;SDS011;2352;48.180;11.478;2024-03-08T14:08:19;15.03;;;13.70;;
4676;SDS011;2352;48.180;11.478;2024-03-08T14:13:23;15.77;;;14.63;;
4676;SDS011;2352;48.180;11.478;2024-03-08T14:18:28;16.87;;;15.40;;
4676;SDS011;2352;48.180;11.478;2024-03-08T14:23:31;16.63;;;15.13;;
4676;SDS011;2352;48.180;11.478;2024-03-08T14:28:34;13.93;;;12.97;;
4676;SDS011;2352;48.180;11.478;2024-03-08T14:33:40;16.67;;;14.50;;
4676;SDS011;2352;48.180;11.478;2024-03-08T14:38:44;15.20;;;13.93;;
4676;SDS011;2352;48.180;11.478;2024-03-08T14:43:48;14.87;;;13.67;;
4676;SDS011;2352;48.180;11.478;2024-03-08T14:48:55;15.63;;;14.53;;
4676;SDS011;2352;48.180;11.478;2024-03-08T14:53:58;14.97;;;13.53;;
4676;SDS011;2352;48.180;11.478;2024-03-08T14:59:01;12.93;;;12.03;;
4676;SDS011;2352;48.180;11.478;2024-03-08T15:04:07;15.43;;;14.23;;
4676;SDS011;2352;48.180;11.478;2024-03-08T15:09:11;15.10;;;13.70;;
4676;SDS011;2352;48.180;11.478;2024-03-08T15:14:18;13.83;;;12.80;;
4676;SDS011;2352;48.180;11.478;2024-03-08T15:19:23;15.10;;;13.57;;
4676;SDS011;2352;48.180;11.478;2024-03-08T15:24:26;12.63;;;11.80;;
4676;SDS011;2352;48.180;11.478;2024-03-08T15:29:29;12.57;;;11.67;;
4676;SDS011;2352;48.180;11.478;2024-03-08T15:34:35;12.93;;;11.93;;
4676;SDS011;2352;48.180;11.478;2024-03-08T15:39:40;13.50;;;12.20;;
4676;SDS011;2352;48.180;11.478;2024-03-08T15:44:42;12.27;;;11.37;;
4676;SDS011;2352;48.180;11.478;2024-03-08T15:49:51;14.07;;;12.80;;
4676;SDS011;2352;48.180;11.478;2024-03-08T15:54:54;13.73;;;12.63;;
4676;SDS011;2352;48.180;11.478;2024-03-08T15:59:58;13.93;;;12.73;;
4676;SDS011;2352;48.180;11.478;2024-03-08T16:05:03;13.50;;;12.40;;
4676;SDS011;2352;48.180;11.478;2024-03-08T16:10:08;12.27;;;11.37;;
4676;SDS011;2352;48.180;11.478;2024-03-08T16:15:12;15.50;;;14.27;;
4676;SDS011;2352;48.180;11.478;2024-03-08T16:20:17;14.10;;;13.10;;
4676;SDS011;2352;48.180;11.478;2024-03-08T16:25:20;13.60;;;12.47;;
4676;SDS011;2352;48.180;11.478;2024-03-08T16:30:24;14.13;;;13.03;;
4676;SDS011;2352;48.180;11.478;2024-03-08T16:35:29;13.97;;;12.80;;
4676;SDS011;2352;48.180;11.478;2024-03-08T16:40:32;13.27;;;12.27;;
4676;SDS011;2352;48.180;11.478;2024-03-08T16:45:35;13.87;;;12.80;;
4676;SDS011;2352;48.180;11.478;2024-03-08T16:50:39;13.90;;;12.90;;
4676;SDS011;2352;48.180;11.478;2024-03-08T16:55:43;16.13;;;14.87;;
4676;SDS011;2352;48.180;11.478;2024-03-08T17:00:47;14.23;;;13.03;;
4676;SDS011;2352;48.180;11.478;2024-03-08T17:05:52;16.00;;;14.53;;
4676;SDS011;2352;48.180;11.478;2024-03-08T17:10:56;15.70;;;14.30;;
4676;SDS011;2352;48.180;11.478;2024-03-08T17:16:00;15.30;;;14.07;;
4676;SDS011;2352;48.180;11.478;2024-03-08T17:21:05;15.80;;;14.60;;
4676;SDS011;2352;48.180;11.478;2024-03-08T17:26:14;15.53;;;13.97;;
4676;SDS011;2352;48.180;11.478;2024-03-08T17:31:19;16.73;;;15.23;;
4676;SDS011;2352;48.180;11.478;2024-03-08T17:36:24;15.90;;;14.40;;
4676;SDS011;2352;48.180;11.478;2024-03-08T17:41:27;16.73;;;15.13;;
4676;SDS011;2352;48.180;11.478;2024-03-08T17:46:30;17.17;;;15.73;;
4676;SDS011;2352;48.180;11.478;2024-03-08T17:51:35;16.37;;;15.10;;
4676;SDS011;2352;48.180;11.478;2024-03-08T17:56:39;17.47;;;15.53;;
4676;SDS011;2352;48.180;11.478;2024-03-08T18:01:42;17.77;;;16.30;;
4676;SDS011;2352;48.180;11.478;2024-03-08T18:06:46;17.57;;;15.97;;
4676;SDS011;2352;48.180;11.478;2024-03-08T18:11:53;16.80;;;15.30;;
4676;SDS011;2352;48.180;11.478;2024-03-08T18:17:00;17.00;;;15.50;;
4676;SDS011;2352;48.180;11.478;2024-03-08T18:22:04;17.73;;;16.23;;
4676;SDS011;2352;48.180;11.478;2024-03-08T18:27:11;16.83;;;15.40;;
4676;SDS011;2352;48.180;11.478;2024-03-08T18:32:15;18.20;;;16.60;;
4676;SDS011;2352;48.180;11.478;2024-03-08T18:37:21;16.63;;;15.40;;
4676;SDS011;2352;48.180;11.478;2024-03-08T18:42:24;18.50;;;16.53;;
4676;SDS011;2352;48.180;11.478;2024-03-08T18:47:27;18.77;;;16.37;;
4676;SDS011;2352;48.180;11.478;2024-03-08T18:52:31;16.60;;;15.37;;
4676;SDS011;2352;48.180;11.478;2024-03-08T18:57:35;17.00;;;15.80;;
4676;SDS011;2352;48.180;11.478;2024-03-08T19:02:45;16.93;;;15.53;;
4676;SDS011;2352;48.180;11.478;2024-03-08T19:07:49;17.13;;;15.70;;
4676;SDS011;2352;48.180;11.478;2024-03-08T19:12:54;16.87;;;15.57;;
4676;SDS011;2352;48.180;11.478;2024-03-08T19:18:00;16.17;;;14.90;;
4676;SDS011;2352;48.180;11.478;2024-03-08T19:23:07;17.30;;;15.83;;
4676;SDS011;2352;48.180;11.478;2024-03-08T19:28:12;15.83;;;14.63;;
4676;SDS011;2352;48.180;11.478;2024-03-08T19:33:17;15.63;;;14.33;;
4676;SDS011;2352;48.180;11.478;2024-03-08T19:38:23;15.30;;;14.27;;
4676;SDS011;2352;48.180;11.478;2024-03-08T19:43:28;15.43;;;14.00;;
4676;SDS011;2352;48.180;11.478;2024-03-08T19:48:32;16.43;;;15.20;;
4676;SDS011;2352;48.180;11.478;2024-03-08T19:53:36;15.17;;;13.67;;
4676;SDS011;2352;48.180;11.478;2024-03-08T19:58:40;15.30;;;13.90;;
4676;SDS011;2352;48.180;11.478;2024-03-08T20:03:44;15.27;;;13.67;;
4676;SDS011;2352;48.180;11.478;2024-03-08T20:08:48;15.07;;;13.80;;
4676;SDS011;2352;48.180;11.478;2024-03-08T20:13:51;14.27;;;13.27;;
4676;SDS011;2352;48.180;11.478;2024-03-08T20:18:54;15.10;;;13.90;;
4676;SDS011;2352;48.180;11.478;2024-03-08T20:24:03;15.60;;;14.40;;
4676;SDS011;2352;48.180;11.478;2024-03-08T20:29:11;15.50;;;13.97;;
4676;SDS011;2352;48.180;11.478;2024-03-08T20:34:14;14.97;;;13.70;;
4676;SDS011;2352;48.180;11.478;2024-03-08T20:39:20;13.77;;;12.80;;
4676;SDS011;2352;48.180;11.478;2024-03-08T20:44:23;15.87;;;14.63;;
4676;SDS011;2352;48.180;11.478;2024-03-08T20:49:26;15.60;;;14.40;;
4676;SDS011;2352;48.180;11.478;2024-03-08T20:54:30;17.90;;;16.50;;
4676;SDS011;2352;48.180;11.478;2024-03-08T20:59:37;15.47;;;14.17;;
4676;SDS011;2352;48.180;11.478;2024-03-08T21:04:40;16.13;;;14.57;;
4676;SDS011;2352;48.180;11.478;2024-03-08T21:09:44;16.37;;;14.77;;
4676;SDS011;2352;48.180;11.478;2024-03-08T21:14:50;14.10;;;13.10;;
4676;SDS011;2352;48.180;11.478;2024-03-08T21:19:53;13.43;;;12.33;;
4676;SDS011;2352;48.180;11.478;2024-03-08T21:24:59;13.90;;;12.90;;
4676;SDS011;2352;48.180;11.478;2024-03-08T21:30:05;13.50;;;12.60;;
4676;SDS011;2352;48.180;11.478;2024-03-08T21:35:10;14.00;;;12.90;;
4676;SDS011;2352;48.180;11.478;2024-03-08T21:40:15;15.83;;;14.67;;
4676;SDS011;2352;48.180;11.478;2024-03-08T21:45:23;15.23;;;14.03;;
4676;SDS011;2352;48.180;11.478;2024-03-08T21:50:28;13.70;;;12.70;;
4676;SDS011;2352;48.180;11.478;2024-03-08T21:55:33;13.40;;;12.50;;
4676;SDS011;2352;48.180;11.478;2024-03-08T22:00:36;15.47;;;14.30;;
4676;SDS011;2352;48.180;11.478;2024-03-08T22:05:43;15.33;;;13.93;;
4676;SDS011;2352;48.180;11.478;2024-03-08T22:10:47;14.47;;;13.37;;
4676;SDS011;2352;48.180;11.478;2024-03-08T22:15:50;13.80;;;12.70;;
4676;SDS011;2352;48.180;11.478;2024-03-08T22:20:53;14.63;;;13.43;;
4676;SDS011;2352;48.180;11.478;2024-03-08T22:25:58;13.30;;;12.30;;
4676;SDS011;2352;48.180;11.478;2024-03-08T22:31:01;13.90;;;12.80;;
4676;SDS011;2352;48.180;11.478;2024-03-08T22:36:07;13.43;;;12.43;;
4676;SDS011;2352;48.180;11.478;2024-03-08T22:41:11;13.50;;;12.37;;
4676;SDS011;2352;48.180;11.478;2024-03-08T22:46:16;13.80;;;12.80;;
4676;SDS011;2352;48.180;11.478;2024-03-08T22:51:19;13.07;;;11.77;;
4676;SDS011;2352;48.180;11.478;2024-03-08T22:56:28;12.23;;;11.13;;
4676;SDS011;2352;48.180;11.478;2024-03-08T23:01:32;13.27;;;12.13;;
4676;SDS011;2352;48.180;11.478;2024-03-08T23:06:35;12.90;;;11.70;;
4676;SDS011;2352;48.180;11.478;2024-03-08T23:11:40;13.33;;;12.27;;
4676;SDS011;2352;48.180;11.478;2024-03-08T23:16:44;13.97;;;12.67;;
4676;SDS011;2352;48.180;11.478;2024-03-08T23:21:48;13.30;;;12.27;;
4676;SDS011;2352;48.180;11.478;2024-03-08T23:26:52;12.17;;;11.23;;
4676;SDS011;2352;48.180;11.478;2024-03-08T23:31:58;12.67;;;11.57;;
4676;SDS011;2352;48.180;11.478;2024-03-08T23:37:01;12.13;;;11.23;;
4676;SDS011;2352;48.180;11.478;2024-03-08T23:42:06;11.67;;;10.77;;
4676;SDS011;2352;48.180;11.478;2024-03-08T23:47:11;12.97;;;11.90;;
4676;SDS011;2352;48.180;11.478;2024-03-08T23:52:14;12.87;;;11.67;;
4676;SDS011;2352;48.180;11.478;2024-03-08T23:57:18;14.67;;;13.47;;
